Rockfield, Wisconsin
Current Conditions -  °F | °C
As of 3:45 PM on Tuesday 21 Oct 2014 (Local Time) from KMWC Reporting Station
Scattered Clouds Scattered Clouds  
Wind Chill: 45°   Ceiling: Unl
Heat Index: 48°   Visibility: 10mi
Dew Point: 36°   Wind: 8mph
Humidity: 62%   Direction: 40°NE
Pressure: 30.22"   Gusts: NA
Location:  43.2326°N, 88.1158°W
Report Text: KMWC 212045Z AUTO 04007KT 10SM SCT029 09/02 A3022
Loading
Personal Weather Stations






























Interactive Weather Map
Tropical Storm Tracking
New forecast layout! Learn more

10-Day Weather Forecast

Advertisements
Track Severe Weather on mobile